sensor_id;sensor_type;location;lat;lon;timestamp;pressure;altitude;pressure_sealevel;temperature;humidity
7774;BME280;3931;42.260;23.116;2023-03-04T00:00:23;95505.09;;;15.04;80.73
7774;BME280;3931;42.260;23.116;2023-03-04T00:02:49;95508.78;;;15.01;81.18
7774;BME280;3931;42.260;23.116;2023-03-04T00:05:15;95507.09;;;15.03;81.08
7774;BME280;3931;42.260;23.116;2023-03-04T00:07:41;95511.88;;;15.03;80.30
7774;BME280;3931;42.260;23.116;2023-03-04T00:10:09;95500.28;;;14.77;81.27
7774;BME280;3931;42.260;23.116;2023-03-04T00:12:36;95505.53;;;15.02;80.79
7774;BME280;3931;42.260;23.116;2023-03-04T00:15:03;95498.56;;;14.89;81.12
7774;BME280;3931;42.260;23.116;2023-03-04T00:17:29;95498.13;;;15.08;81.10
7774;BME280;3931;42.260;23.116;2023-03-04T00:19:56;95500.13;;;14.90;80.83
7774;BME280;3931;42.260;23.116;2023-03-04T00:22:22;95490.06;;;14.65;83.24
7774;BME280;3931;42.260;23.116;2023-03-04T00:24:48;95494.25;;;15.06;80.76
7774;BME280;3931;42.260;23.116;2023-03-04T00:27:14;95493.63;;;14.84;80.73
7774;BME280;3931;42.260;23.116;2023-03-04T00:29:40;95506.75;;;14.56;83.03
7774;BME280;3931;42.260;23.116;2023-03-04T00:32:07;95493.44;;;14.51;82.97
7774;BME280;3931;42.260;23.116;2023-03-04T00:34:33;95492.56;;;14.81;82.03
7774;BME280;3931;42.260;23.116;2023-03-04T00:36:59;95494.97;;;14.34;84.04
7774;BME280;3931;42.260;23.116;2023-03-04T00:39:27;95477.53;;;14.51;83.91
7774;BME280;3931;42.260;23.116;2023-03-04T00:41:54;95481.13;;;14.12;85.55
7774;BME280;3931;42.260;23.116;2023-03-04T00:44:20;95481.31;;;13.78;93.50
7774;BME280;3931;42.260;23.116;2023-03-04T00:46:46;95477.00;;;14.26;87.40
7774;BME280;3931;42.260;23.116;2023-03-04T00:49:12;95478.78;;;14.11;87.88
7774;BME280;3931;42.260;23.116;2023-03-04T00:51:38;95481.09;;;14.70;84.56
7774;BME280;3931;42.260;23.116;2023-03-04T00:54:04;95477.22;;;14.49;85.21
7774;BME280;3931;42.260;23.116;2023-03-04T00:56:30;95471.69;;;14.01;88.75
7774;BME280;3931;42.260;23.116;2023-03-04T00:58:56;95464.53;;;13.90;93.28
7774;BME280;3931;42.260;23.116;2023-03-04T01:01:22;95467.50;;;14.05;87.56
7774;BME280;3931;42.260;23.116;2023-03-04T01:03:48;95467.50;;;14.05;89.14
7774;BME280;3931;42.260;23.116;2023-03-04T01:06:15;95470.66;;;14.25;88.20
7774;BME280;3931;42.260;23.116;2023-03-04T01:08:42;95471.97;;;13.94;88.75
7774;BME280;3931;42.260;23.116;2023-03-04T01:11:08;95472.03;;;14.21;86.66
7774;BME280;3931;42.260;23.116;2023-03-04T01:13:34;95468.41;;;13.93;89.86
7774;BME280;3931;42.260;23.116;2023-03-04T01:16:00;95472.16;;;13.99;90.07
7774;BME280;3931;42.260;23.116;2023-03-04T01:18:28;95472.09;;;13.81;91.52
7774;BME280;3931;42.260;23.116;2023-03-04T01:20:54;95475.66;;;13.90;90.07
7774;BME280;3931;42.260;23.116;2023-03-04T01:23:20;95461.13;;;14.63;84.78
7774;BME280;3931;42.260;23.116;2023-03-04T01:25:47;95466.25;;;14.55;84.99
7774;BME280;3931;42.260;23.116;2023-03-04T01:28:13;95463.19;;;13.64;93.56
7774;BME280;3931;42.260;23.116;2023-03-04T01:30:39;95463.22;;;14.22;90.08
7774;BME280;3931;42.260;23.116;2023-03-04T01:33:05;95468.53;;;14.38;87.27
7774;BME280;3931;42.260;23.116;2023-03-04T01:35:31;95458.81;;;14.43;84.50
7774;BME280;3931;42.260;23.116;2023-03-04T01:37:57;95452.78;;;14.53;85.44
7774;BME280;3931;42.260;23.116;2023-03-04T01:40:24;95445.81;;;14.76;83.03
7774;BME280;3931;42.260;23.116;2023-03-04T01:42:50;95446.59;;;14.86;82.17
7774;BME280;3931;42.260;23.116;2023-03-04T01:45:18;95453.03;;;15.19;79.64
7774;BME280;3931;42.260;23.116;2023-03-04T01:47:46;95446.28;;;14.66;82.37
7774;BME280;3931;42.260;23.116;2023-03-04T01:50:19;95449.56;;;14.06;88.24
7774;BME280;3931;42.260;23.116;2023-03-04T01:52:46;95449.63;;;14.24;86.87
7774;BME280;3931;42.260;23.116;2023-03-04T01:55:15;95446.59;;;14.40;86.59
7774;BME280;3931;42.260;23.116;2023-03-04T01:57:43;95441.94;;;14.65;84.13
7774;BME280;3931;42.260;23.116;2023-03-04T02:00:25;95440.53;;;14.33;85.91
7774;BME280;3931;42.260;23.116;2023-03-04T02:02:53;95444.72;;;14.92;81.22
7774;BME280;3931;42.260;23.116;2023-03-04T02:05:20;95447.69;;;14.79;80.50
7774;BME280;3931;42.260;23.116;2023-03-04T02:07:46;95437.31;;;14.71;82.56
7774;BME280;3931;42.260;23.116;2023-03-04T02:10:13;95433.75;;;13.76;88.91
7774;BME280;3931;42.260;23.116;2023-03-04T02:12:39;95420.22;;;14.05;89.52
7774;BME280;3931;42.260;23.116;2023-03-04T02:15:07;95410.56;;;13.30;100.00
7774;BME280;3931;42.260;23.116;2023-03-04T02:17:33;95413.56;;;14.03;92.27
7774;BME280;3931;42.260;23.116;2023-03-04T02:20:03;95414.84;;;14.29;90.20
7774;BME280;3931;42.260;23.116;2023-03-04T02:22:37;95408.19;;;14.17;91.97
7774;BME280;3931;42.260;23.116;2023-03-04T02:25:10;95411.84;;;13.87;93.18
7774;BME280;3931;42.260;23.116;2023-03-04T02:27:38;95405.06;;;14.06;92.31
7774;BME280;3931;42.260;23.116;2023-03-04T02:30:05;95411.00;;;13.68;95.10
7774;BME280;3931;42.260;23.116;2023-03-04T02:32:31;95411.25;;;13.92;94.89
7774;BME280;3931;42.260;23.116;2023-03-04T02:34:57;95406.44;;;13.44;96.05
7774;BME280;3931;42.260;23.116;2023-03-04T02:37:23;95404.75;;;13.46;97.99
7774;BME280;3931;42.260;23.116;2023-03-04T02:39:49;95400.13;;;13.43;97.31
7774;BME280;3931;42.260;23.116;2023-03-04T02:42:16;95398.91;;;13.13;100.00
7774;BME280;3931;42.260;23.116;2023-03-04T02:44:45;95384.16;;;13.35;100.00
7774;BME280;3931;42.260;23.116;2023-03-04T02:47:14;95399.94;;;13.86;93.32
7774;BME280;3931;42.260;23.116;2023-03-04T02:49:42;95393.84;;;13.61;95.44
7774;BME280;3931;42.260;23.116;2023-03-04T02:52:10;95387.66;;;13.57;97.15
7774;BME280;3931;42.260;23.116;2023-03-04T02:54:38;95372.69;;;13.24;100.00
7774;BME280;3931;42.260;23.116;2023-03-04T02:57:06;95370.59;;;13.28;100.00
7774;BME280;3931;42.260;23.116;2023-03-04T02:59:32;95368.91;;;13.39;100.00
7774;BME280;3931;42.260;23.116;2023-03-04T03:02:00;95381.03;;;13.54;95.40
7774;BME280;3931;42.260;23.116;2023-03-04T03:04:27;95374.53;;;13.57;97.56
7774;BME280;3931;42.260;23.116;2023-03-04T03:06:53;95382.56;;;13.15;100.00
7774;BME280;3931;42.260;23.116;2023-03-04T03:09:19;95367.59;;;12.91;100.00
7774;BME280;3931;42.260;23.116;2023-03-04T03:11:45;95367.44;;;13.17;100.00
7774;BME280;3931;42.260;23.116;2023-03-04T03:14:11;95361.16;;;12.94;100.00
7774;BME280;3931;42.260;23.116;2023-03-04T03:16:37;95357.66;;;13.43;100.00
7774;BME280;3931;42.260;23.116;2023-03-04T03:19:04;95372.13;;;13.29;99.55
7774;BME280;3931;42.260;23.116;2023-03-04T03:21:31;95373.34;;;13.28;99.85
7774;BME280;3931;42.260;23.116;2023-03-04T03:23:57;95370.81;;;13.11;100.00
7774;BME280;3931;42.260;23.116;2023-03-04T03:26:23;95362.34;;;12.93;100.00
7774;BME280;3931;42.260;23.116;2023-03-04T03:28:49;95367.81;;;13.28;100.00
7774;BME280;3931;42.260;23.116;2023-03-04T03:31:15;95379.09;;;13.33;99.97
7774;BME280;3931;42.260;23.116;2023-03-04T03:33:41;95381.91;;;13.42;95.88
7774;BME280;3931;42.260;23.116;2023-03-04T03:36:08;95395.78;;;13.91;92.40
7774;BME280;3931;42.260;23.116;2023-03-04T03:38:34;95393.00;;;13.91;90.17
7774;BME280;3931;42.260;23.116;2023-03-04T03:41:00;95398.44;;;13.46;95.38
7774;BME280;3931;42.260;23.116;2023-03-04T03:43:26;95393.13;;;13.78;93.44
7774;BME280;3931;42.260;23.116;2023-03-04T03:45:52;95386.66;;;14.00;91.65
7774;BME280;3931;42.260;23.116;2023-03-04T03:48:18;95389.97;;;14.25;87.92
7774;BME280;3931;42.260;23.116;2023-03-04T03:50:44;95385.03;;;14.38;86.75
7774;BME280;3931;42.260;23.116;2023-03-04T03:53:11;95386.75;;;14.54;85.47
7774;BME280;3931;42.260;23.116;2023-03-04T03:55:37;95379.28;;;14.69;83.74
7774;BME280;3931;42.260;23.116;2023-03-04T03:58:03;95390.28;;;14.64;82.87
7774;BME280;3931;42.260;23.116;2023-03-04T04:00:30;95387.34;;;14.31;84.40
7774;BME280;3931;42.260;23.116;2023-03-04T04:02:57;95389.66;;;14.23;84.92
7774;BME280;3931;42.260;23.116;2023-03-04T04:05:24;95388.44;;;14.42;85.16
7774;BME280;3931;42.260;23.116;2023-03-04T04:07:50;95384.72;;;14.54;83.66
7774;BME280;3931;42.260;23.116;2023-03-04T04:10:17;95377.16;;;14.37;84.78
7774;BME280;3931;42.260;23.116;2023-03-04T04:12:43;95382.72;;;14.37;86.23
7774;BME280;3931;42.260;23.116;2023-03-04T04:15:10;95382.69;;;14.28;86.42
7774;BME280;3931;42.260;23.116;2023-03-04T04:17:36;95372.22;;;14.41;87.23
7774;BME280;3931;42.260;23.116;2023-03-04T04:20:03;95378.56;;;14.50;85.44
7774;BME280;3931;42.260;23.116;2023-03-04T04:22:29;95385.81;;;14.57;84.45
7774;BME280;3931;42.260;23.116;2023-03-04T04:24:55;95378.38;;;14.63;83.72
7774;BME280;3931;42.260;23.116;2023-03-04T04:27:22;95391.78;;;13.92;88.53
7774;BME280;3931;42.260;23.116;2023-03-04T04:29:48;95387.53;;;13.60;92.94
7774;BME280;3931;42.260;23.116;2023-03-04T04:32:14;95387.28;;;13.85;93.48
7774;BME280;3931;42.260;23.116;2023-03-04T04:34:40;95376.59;;;13.84;93.71
7774;BME280;3931;42.260;23.116;2023-03-04T04:37:07;95377.13;;;14.19;91.05
7774;BME280;3931;42.260;23.116;2023-03-04T04:39:33;95377.78;;;14.41;87.94
7774;BME280;3931;42.260;23.116;2023-03-04T04:41:59;95380.06;;;14.24;88.43
7774;BME280;3931;42.260;23.116;2023-03-04T04:44:25;95373.91;;;14.29;88.31
7774;BME280;3931;42.260;23.116;2023-03-04T04:46:51;95378.13;;;13.76;92.38
7774;BME280;3931;42.260;23.116;2023-03-04T04:49:18;95384.91;;;13.26;99.76
7774;BME280;3931;42.260;23.116;2023-03-04T04:51:44;95386.19;;;13.34;96.02
7774;BME280;3931;42.260;23.116;2023-03-04T04:54:13;95383.94;;;13.51;94.48
7774;BME280;3931;42.260;23.116;2023-03-04T04:56:39;95384.97;;;13.93;90.18
7774;BME280;3931;42.260;23.116;2023-03-04T04:59:05;95389.97;;;14.25;88.12
7774;BME280;3931;42.260;23.116;2023-03-04T05:01:32;95391.22;;;14.33;86.89
7774;BME280;3931;42.260;23.116;2023-03-04T05:03:59;95393.03;;;14.18;87.85
7774;BME280;3931;42.260;23.116;2023-03-04T05:06:25;95389.75;;;14.02;89.68
7774;BME280;3931;42.260;23.116;2023-03-04T05:08:51;95396.09;;;14.02;90.99
7774;BME280;3931;42.260;23.116;2023-03-04T05:11:18;95396.44;;;14.13;90.12
7774;BME280;3931;42.260;23.116;2023-03-04T05:13:45;95397.84;;;14.27;87.32
7774;BME280;3931;42.260;23.116;2023-03-04T05:16:11;95401.66;;;14.02;90.90
7774;BME280;3931;42.260;23.116;2023-03-04T05:18:38;95396.72;;;14.06;90.67
7774;BME280;3931;42.260;23.116;2023-03-04T05:21:05;95395.03;;;14.09;89.84
7774;BME280;3931;42.260;23.116;2023-03-04T05:23:32;95393.88;;;13.70;93.01
7774;BME280;3931;42.260;23.116;2023-03-04T05:25:59;95405.97;;;13.85;92.89
7774;BME280;3931;42.260;23.116;2023-03-04T05:28:25;95404.94;;;13.52;93.69
7774;BME280;3931;42.260;23.116;2023-03-04T05:30:51;95393.56;;;13.28;97.47
7774;BME280;3931;42.260;23.116;2023-03-04T05:33:18;95395.38;;;13.62;98.19
7774;BME280;3931;42.260;23.116;2023-03-04T05:35:47;95397.66;;;13.94;94.79
7774;BME280;3931;42.260;23.116;2023-03-04T05:38:15;95405.16;;;14.51;87.79
7774;BME280;3931;42.260;23.116;2023-03-04T05:40:41;95419.84;;;14.52;86.05
7774;BME280;3931;42.260;23.116;2023-03-04T05:43:07;95421.16;;;14.20;86.68
7774;BME280;3931;42.260;23.116;2023-03-04T05:45:34;95422.06;;;13.99;88.44
7774;BME280;3931;42.260;23.116;2023-03-04T05:48:00;95415.47;;;14.15;88.13
7774;BME280;3931;42.260;23.116;2023-03-04T05:50:27;95422.09;;;14.08;87.08
7774;BME280;3931;42.260;23.116;2023-03-04T05:52:54;95424.78;;;13.72;91.30
7774;BME280;3931;42.260;23.116;2023-03-04T05:55:20;95423.50;;;13.64;94.44
7774;BME280;3931;42.260;23.116;2023-03-04T05:57:47;95418.78;;;13.82;94.69
7774;BME280;3931;42.260;23.116;2023-03-04T06:00:14;95430.97;;;14.34;88.32
7774;BME280;3931;42.260;23.116;2023-03-04T06:02:42;95417.81;;;14.34;87.16
7774;BME280;3931;42.260;23.116;2023-03-04T06:05:09;95420.69;;;14.22;89.95
7774;BME280;3931;42.260;23.116;2023-03-04T06:07:35;95425.47;;;13.94;90.83
7774;BME280;3931;42.260;23.116;2023-03-04T06:10:02;95435.69;;;14.15;89.89
7774;BME280;3931;42.260;23.116;2023-03-04T06:12:29;95442.56;;;13.74;93.61
7774;BME280;3931;42.260;23.116;2023-03-04T06:14:55;95431.00;;;13.85;92.64
7774;BME280;3931;42.260;23.116;2023-03-04T06:17:21;95449.56;;;13.88;90.26
7774;BME280;3931;42.260;23.116;2023-03-04T06:19:47;95448.13;;;13.74;92.75
7774;BME280;3931;42.260;23.116;2023-03-04T06:22:13;95457.25;;;13.84;89.80
7774;BME280;3931;42.260;23.116;2023-03-04T06:24:39;95452.66;;;13.90;90.46
7774;BME280;3931;42.260;23.116;2023-03-04T06:27:06;95451.06;;;13.80;92.63
7774;BME280;3931;42.260;23.116;2023-03-04T06:29:32;95447.88;;;13.60;94.39
7774;BME280;3931;42.260;23.116;2023-03-04T06:31:58;95452.47;;;13.84;92.92
7774;BME280;3931;42.260;23.116;2023-03-04T06:34:24;95463.94;;;13.96;90.19
7774;BME280;3931;42.260;23.116;2023-03-04T06:36:50;95456.28;;;14.27;88.08
7774;BME280;3931;42.260;23.116;2023-03-04T06:39:16;95467.63;;;14.41;86.10
7774;BME280;3931;42.260;23.116;2023-03-04T06:41:42;95465.78;;;14.56;84.20
7774;BME280;3931;42.260;23.116;2023-03-04T06:44:09;95467.72;;;14.29;85.14
7774;BME280;3931;42.260;23.116;2023-03-04T06:46:35;95473.22;;;14.50;84.97
7774;BME280;3931;42.260;23.116;2023-03-04T06:49:01;95473.19;;;14.41;84.47
7774;BME280;3931;42.260;23.116;2023-03-04T06:51:28;95476.41;;;14.31;84.98
7774;BME280;3931;42.260;23.116;2023-03-04T06:53:54;95474.31;;;14.13;85.68
7774;BME280;3931;42.260;23.116;2023-03-04T06:56:20;95469.00;;;14.37;85.75
7774;BME280;3931;42.260;23.116;2023-03-04T06:58:47;95474.41;;;14.40;84.45
7774;BME280;3931;42.260;23.116;2023-03-04T07:01:15;95478.44;;;14.57;84.01
7774;BME280;3931;42.260;23.116;2023-03-04T07:03:41;95485.41;;;14.53;83.93
7774;BME280;3931;42.260;23.116;2023-03-04T07:06:08;95474.25;;;14.53;84.89
7774;BME280;3931;42.260;23.116;2023-03-04T07:08:35;95470.09;;;14.57;85.42
7774;BME280;3931;42.260;23.116;2023-03-04T07:11:01;95471.81;;;14.73;83.25
7774;BME280;3931;42.260;23.116;2023-03-04T07:13:27;95475.53;;;14.88;80.90
7774;BME280;3931;42.260;23.116;2023-03-04T07:15:53;95477.84;;;14.72;83.05
7774;BME280;3931;42.260;23.116;2023-03-04T07:18:20;95473.66;;;14.85;82.18
7774;BME280;3931;42.260;23.116;2023-03-04T07:20:46;95470.56;;;14.92;80.13
7774;BME280;3931;42.260;23.116;2023-03-04T07:23:12;95471.06;;;14.73;80.72
7774;BME280;3931;42.260;23.116;2023-03-04T07:25:38;95467.00;;;14.55;82.88
7774;BME280;3931;42.260;23.116;2023-03-04T07:28:04;95471.97;;;14.70;82.86
7774;BME280;3931;42.260;23.116;2023-03-04T07:30:30;95456.81;;;14.62;82.99
7774;BME280;3931;42.260;23.116;2023-03-04T07:32:56;95459.91;;;14.82;80.36
7774;BME280;3931;42.260;23.116;2023-03-04T07:35:23;95457.41;;;15.11;77.98
7774;BME280;3931;42.260;23.116;2023-03-04T07:37:49;95465.41;;;15.27;77.36
7774;BME280;3931;42.260;23.116;2023-03-04T07:40:15;95461.91;;;14.99;78.63
7774;BME280;3931;42.260;23.116;2023-03-04T07:42:41;95453.09;;;14.83;76.43
7774;BME280;3931;42.260;23.116;2023-03-04T07:45:08;95458.34;;;14.81;78.54
7774;BME280;3931;42.260;23.116;2023-03-04T07:47:34;95458.34;;;14.90;76.47
7774;BME280;3931;42.260;23.116;2023-03-04T07:50:00;95459.13;;;14.72;77.40
7774;BME280;3931;42.260;23.116;2023-03-04T07:52:27;95459.72;;;14.58;78.46
7774;BME280;3931;42.260;23.116;2023-03-04T07:54:53;95462.22;;;14.92;76.10
7774;BME280;3931;42.260;23.116;2023-03-04T07:57:19;95462.94;;;15.20;75.87
7774;BME280;3931;42.260;23.116;2023-03-04T07:59:45;95460.59;;;15.27;73.06
7774;BME280;3931;42.260;23.116;2023-03-04T08:02:11;95467.63;;;14.78;77.27
7774;BME280;3931;42.260;23.116;2023-03-04T08:04:37;95467.00;;;14.74;76.87
7774;BME280;3931;42.260;23.116;2023-03-04T08:07:03;95450.91;;;14.96;75.38
7774;BME280;3931;42.260;23.116;2023-03-04T08:09:30;95460.66;;;15.00;76.36
7774;BME280;3931;42.260;23.116;2023-03-04T08:11:56;95457.53;;;15.25;73.97
7774;BME280;3931;42.260;23.116;2023-03-04T08:14:22;95462.69;;;15.69;73.00
7774;BME280;3931;42.260;23.116;2023-03-04T08:16:48;95457.78;;;15.55;73.15
7774;BME280;3931;42.260;23.116;2023-03-04T08:19:14;95462.78;;;15.83;71.76
7774;BME280;3931;42.260;23.116;2023-03-04T08:21:40;95457.34;;;15.89;71.60
7774;BME280;3931;42.260;23.116;2023-03-04T08:24:06;95462.84;;;15.65;73.04
7774;BME280;3931;42.260;23.116;2023-03-04T08:26:35;95460.38;;;15.67;72.27
7774;BME280;3931;42.260;23.116;2023-03-04T08:29:04;95451.69;;;15.65;72.72
7774;BME280;3931;42.260;23.116;2023-03-04T08:31:31;95458.72;;;15.93;71.37
7774;BME280;3931;42.260;23.116;2023-03-04T08:33:57;95456.34;;;15.68;71.61
7774;BME280;3931;42.260;23.116;2023-03-04T08:36:23;95455.50;;;16.42;68.13
7774;BME280;3931;42.260;23.116;2023-03-04T08:38:49;95462.25;;;16.27;69.25
7774;BME280;3931;42.260;23.116;2023-03-04T08:41:15;95459.50;;;16.50;65.29
7774;BME280;3931;42.260;23.116;2023-03-04T08:43:43;95461.00;;;16.04;64.71
7774;BME280;3931;42.260;23.116;2023-03-04T08:46:09;95458.28;;;16.42;62.97
7774;BME280;3931;42.260;23.116;2023-03-04T08:48:35;95462.31;;;16.18;64.75
7774;BME280;3931;42.260;23.116;2023-03-04T08:51:06;95461.19;;;15.91;65.76
7774;BME280;3931;42.260;23.116;2023-03-04T08:53:32;95458.00;;;16.64;64.55
7774;BME280;3931;42.260;23.116;2023-03-04T08:55:58;95465.19;;;16.94;60.68
7774;BME280;3931;42.260;23.116;2023-03-04T08:58:24;95457.94;;;16.73;61.20
7774;BME280;3931;42.260;23.116;2023-03-04T09:00:51;95461.34;;;16.53;62.20
7774;BME280;3931;42.260;23.116;2023-03-04T09:03:18;95456.50;;;16.77;62.09
7774;BME280;3931;42.260;23.116;2023-03-04T09:05:45;95451.03;;;15.79;65.37
7774;BME280;3931;42.260;23.116;2023-03-04T09:08:11;95457.03;;;16.20;65.09
7774;BME280;3931;42.260;23.116;2023-03-04T09:10:38;95458.00;;;16.40;61.83
7774;BME280;3931;42.260;23.116;2023-03-04T09:13:04;95454.78;;;16.56;61.32
7774;BME280;3931;42.260;23.116;2023-03-04T09:15:30;95454.94;;;16.05;62.09
7774;BME280;3931;42.260;23.116;2023-03-04T09:18:01;95447.00;;;16.37;61.91
7774;BME280;3931;42.260;23.116;2023-03-04T09:20:27;95451.88;;;15.94;64.20
7774;BME280;3931;42.260;23.116;2023-03-04T09:22:53;95449.41;;;16.91;63.64
7774;BME280;3931;42.260;23.116;2023-03-04T09:25:20;95441.53;;;16.42;66.61
7774;BME280;3931;42.260;23.116;2023-03-04T09:27:46;95449.03;;;16.98;59.68
7774;BME280;3931;42.260;23.116;2023-03-04T09:30:12;95447.78;;;16.99;59.71
7774;BME280;3931;42.260;23.116;2023-03-04T09:32:39;95452.88;;;16.39;60.66
7774;BME280;3931;42.260;23.116;2023-03-04T09:35:07;95444.53;;;16.30;62.69
7774;BME280;3931;42.260;23.116;2023-03-04T09:37:34;95449.88;;;16.51;63.02
7774;BME280;3931;42.260;23.116;2023-03-04T09:40:00;95443.91;;;16.58;60.38
7774;BME280;3931;42.260;23.116;2023-03-04T09:42:31;95446.50;;;16.38;59.86
7774;BME280;3931;42.260;23.116;2023-03-04T09:44:58;95447.75;;;16.85;59.52
7774;BME280;3931;42.260;23.116;2023-03-04T09:47:25;95433.66;;;16.79;63.55
7774;BME280;3931;42.260;23.116;2023-03-04T09:49:54;95440.16;;;16.38;68.44
7774;BME280;3931;42.260;23.116;2023-03-04T09:52:33;95436.66;;;16.28;65.97
7774;BME280;3931;42.260;23.116;2023-03-04T09:55:07;95436.75;;;16.10;66.36
7774;BME280;3931;42.260;23.116;2023-03-04T09:57:49;95428.34;;;16.19;66.54
7774;BME280;3931;42.260;23.116;2023-03-04T10:00:19;95437.31;;;16.47;65.23
7774;BME280;3931;42.260;23.116;2023-03-04T10:02:58;95427.94;;;16.59;64.39
7774;BME280;3931;42.260;23.116;2023-03-04T10:05:27;95416.75;;;16.35;67.65
7774;BME280;3931;42.260;23.116;2023-03-04T10:07:58;95431.75;;;15.90;68.18
7774;BME280;3931;42.260;23.116;2023-03-04T10:10:29;95421.72;;;16.08;nan
7774;BME280;3931;42.260;23.116;2023-03-04T10:12:57;95420.44;;;16.18;64.62
7774;BME280;3931;42.260;23.116;2023-03-04T10:15:30;95420.84;;;16.25;67.05
7774;BME280;3931;42.260;23.116;2023-03-04T10:18:02;95420.84;;;16.49;67.87
7774;BME280;3931;42.260;23.116;2023-03-04T10:20:42;95411.16;;;15.88;67.69
7774;BME280;3931;42.260;23.116;2023-03-04T10:23:13;95412.41;;;16.11;68.31
7774;BME280;3931;42.260;23.116;2023-03-04T10:25:43;95408.44;;;16.73;67.22
7774;BME280;3931;42.260;23.116;2023-03-04T10:28:14;95414.91;;;17.23;62.06
7774;BME280;3931;42.260;23.116;2023-03-04T10:30:47;95410.72;;;16.75;62.58
7774;BME280;3931;42.260;23.116;2023-03-04T10:33:18;95408.38;;;16.59;61.16
7774;BME280;3931;42.260;23.116;2023-03-04T10:35:47;95404.41;;;17.04;59.07
7774;BME280;3931;42.260;23.116;2023-03-04T10:38:18;95397.56;;;17.19;58.94
7774;BME280;3931;42.260;23.116;2023-03-04T10:40:45;95399.69;;;17.10;58.55
7774;BME280;3931;42.260;23.116;2023-03-04T10:43:16;95396.41;;;17.26;58.77
7774;BME280;3931;42.260;23.116;2023-03-04T10:45:42;95387.63;;;16.89;58.76
7774;BME280;3931;42.260;23.116;2023-03-04T10:48:19;95383.66;;;16.81;60.27
7774;BME280;3931;42.260;23.116;2023-03-04T10:50:45;95381.84;;;16.93;58.35
7774;BME280;3931;42.260;23.116;2023-03-04T10:53:27;95385.22;;;17.11;58.23
7774;BME280;3931;42.260;23.116;2023-03-04T10:55:54;95373.84;;;17.29;59.28
7774;BME280;3931;42.260;23.116;2023-03-04T10:58:20;95375.09;;;17.43;58.29
7774;BME280;3931;42.260;23.116;2023-03-04T11:00:57;95369.91;;;17.51;57.83
7774;BME280;3931;42.260;23.116;2023-03-04T11:03:29;95368.16;;;17.53;57.52
7774;BME280;3931;42.260;23.116;2023-03-04T11:06:17;95362.38;;;17.27;56.92
7774;BME280;3931;42.260;23.116;2023-03-04T11:08:45;95359.63;;;17.47;55.91
7774;BME280;3931;42.260;23.116;2023-03-04T11:11:23;95356.19;;;17.23;55.79
7774;BME280;3931;42.260;23.116;2023-03-04T11:13:51;95355.91;;;17.21;56.96
7774;BME280;3931;42.260;23.116;2023-03-04T11:16:24;95339.41;;;17.53;58.91
7774;BME280;3931;42.260;23.116;2023-03-04T11:18:52;95332.31;;;17.22;58.28
7774;BME280;3931;42.260;23.116;2023-03-04T11:21:21;95332.13;;;16.05;60.59
7774;BME280;3931;42.260;23.116;2023-03-04T11:23:51;95339.13;;;16.25;58.76
7774;BME280;3931;42.260;23.116;2023-03-04T11:26:20;95335.38;;;16.81;58.61
7774;BME280;3931;42.260;23.116;2023-03-04T11:28:52;95326.13;;;16.60;60.53
7774;BME280;3931;42.260;23.116;2023-03-04T11:31:21;95327.50;;;16.64;58.52
7774;BME280;3931;42.260;23.116;2023-03-04T11:33:52;95317.63;;;16.16;58.72
7774;BME280;3931;42.260;23.116;2023-03-04T11:36:28;95317.28;;;16.76;61.41
7774;BME280;3931;42.260;23.116;2023-03-04T11:38:59;95315.44;;;17.17;60.46
7774;BME280;3931;42.260;23.116;2023-03-04T11:41:29;95313.41;;;17.17;57.50
7774;BME280;3931;42.260;23.116;2023-03-04T11:43:57;95314.19;;;17.03;58.04
7774;BME280;3931;42.260;23.116;2023-03-04T11:46:55;95315.59;;;16.40;62.31
7774;BME280;3931;42.260;23.116;2023-03-04T11:49:59;95306.38;;;16.93;57.95
7774;BME280;3931;42.260;23.116;2023-03-04T11:52:40;95310.56;;;17.32;58.45
7774;BME280;3931;42.260;23.116;2023-03-04T11:55:30;95303.69;;;17.47;57.52
7774;BME280;3931;42.260;23.116;2023-03-04T11:58:12;95314.25;;;17.23;56.40
7774;BME280;3931;42.260;23.116;2023-03-04T12:00:47;95317.56;;;17.07;57.09
7774;BME280;3931;42.260;23.116;2023-03-04T12:03:33;95300.63;;;16.96;61.96
7774;BME280;3931;42.260;23.116;2023-03-04T12:06:11;95304.91;;;17.26;57.55
7774;BME280;3931;42.260;23.116;2023-03-04T12:09:02;95302.50;;;17.19;57.28
7774;BME280;3931;42.260;23.116;2023-03-04T12:11:39;95297.09;;;17.30;57.36
7774;BME280;3931;42.260;23.116;2023-03-04T12:14:24;95293.13;;;17.52;55.98
7774;BME280;3931;42.260;23.116;2023-03-04T12:19:56;95292.34;;;17.51;55.92
7774;BME280;3931;42.260;23.116;2023-03-04T12:22:39;95290.47;;;16.99;57.60
7774;BME280;3931;42.260;23.116;2023-03-04T12:25:17;95288.09;;;17.56;56.17
7774;BME280;3931;42.260;23.116;2023-03-04T12:27:56;95283.22;;;17.71;58.20
7774;BME280;3931;42.260;23.116;2023-03-04T12:30:34;95272.28;;;17.53;60.07
7774;BME280;3931;42.260;23.116;2023-03-04T12:33:11;95285.38;;;17.46;58.41
7774;BME280;3931;42.260;23.116;2023-03-04T12:35:46;95275.78;;;17.33;58.62
7774;BME280;3931;42.260;23.116;2023-03-04T12:38:30;95267.53;;;17.59;58.29
7774;BME280;3931;42.260;23.116;2023-03-04T12:41:17;95266.22;;;17.74;55.70
7774;BME280;3931;42.260;23.116;2023-03-04T12:43:53;95270.97;;;17.68;55.16
7774;BME280;3931;42.260;23.116;2023-03-04T12:46:34;95253.91;;;17.86;55.20
7774;BME280;3931;42.260;23.116;2023-03-04T12:49:17;95251.16;;;18.58;53.94
7774;BME280;3931;42.260;23.116;2023-03-04T12:51:53;95250.53;;;18.02;54.58
7774;BME280;3931;42.260;23.116;2023-03-04T12:54:24;95251.50;;;17.79;55.27
7774;BME280;3931;42.260;23.116;2023-03-04T12:56:56;95251.31;;;17.48;57.45
7774;BME280;3931;42.260;23.116;2023-03-04T12:59:25;95245.88;;;17.74;56.55
7774;BME280;3931;42.260;23.116;2023-03-04T13:01:55;95236.47;;;17.77;56.93
7774;BME280;3931;42.260;23.116;2023-03-04T13:04:28;95233.31;;;18.55;56.95
7774;BME280;3931;42.260;23.116;2023-03-04T13:07:09;95236.72;;;17.38;57.37
7774;BME280;3931;42.260;23.116;2023-03-04T13:09:42;95228.31;;;17.04;60.19
7774;BME280;3931;42.260;23.116;2023-03-04T13:12:15;95216.19;;;17.62;61.39
7774;BME280;3931;42.260;23.116;2023-03-04T13:18:01;95219.59;;;18.11;56.57
7774;BME280;3931;42.260;23.116;2023-03-04T13:20:38;95226.34;;;18.45;55.46
7774;BME280;3931;42.260;23.116;2023-03-04T13:23:23;95229.50;;;18.12;56.86